sensor_id;sensor_type;location;lat;lon;timestamp;temperature;humidity
24224;DHT22;12359;49.716;9.212;2023-01-29T00:01:06;1.30;1.00
24224;DHT22;12359;49.716;9.212;2023-01-29T00:03:32;1.30;1.00
24224;DHT22;12359;49.716;9.212;2023-01-29T00:05:58;1.30;1.00
24224;DHT22;12359;49.716;9.212;2023-01-29T00:08:24;1.30;99.90
24224;DHT22;12359;49.716;9.212;2023-01-29T00:10:50;1.30;99.90
24224;DHT22;12359;49.716;9.212;2023-01-29T00:13:16;1.30;99.90
24224;DHT22;12359;49.716;9.212;2023-01-29T00:15:42;1.20;1.00
24224;DHT22;12359;49.716;9.212;2023-01-29T00:18:07;1.30;1.00
24224;DHT22;12359;49.716;9.212;2023-01-29T00:20:33;1.20;1.00
24224;DHT22;12359;49.716;9.212;2023-01-29T00:22:59;1.30;99.90
24224;DHT22;12359;49.716;9.212;2023-01-29T00:25:25;1.30;99.90
24224;DHT22;12359;49.716;9.212;2023-01-29T00:27:51;1.30;5.10
24224;DHT22;12359;49.716;9.212;2023-01-29T00:30:16;1.30;99.90
24224;DHT22;12359;49.716;9.212;2023-01-29T00:32:44;1.30;99.90
24224;DHT22;12359;49.716;9.212;2023-01-29T00:35:10;1.30;1.00
24224;DHT22;12359;49.716;9.212;2023-01-29T00:37:36;1.30;99.90
24224;DHT22;12359;49.716;9.212;2023-01-29T00:40:03;1.30;1.00
24224;DHT22;12359;49.716;9.212;2023-01-29T00:42:29;1.30;99.90
24224;DHT22;12359;49.716;9.212;2023-01-29T00:45:14;1.30;1.00
24224;DHT22;12359;49.716;9.212;2023-01-29T00:47:39;1.30;13.50
24224;DHT22;12359;49.716;9.212;2023-01-29T00:50:08;1.30;1.00
24224;DHT22;12359;49.716;9.212;2023-01-29T00:52:34;1.30;25.50
24224;DHT22;12359;49.716;9.212;2023-01-29T00:55:02;1.30;99.90
24224;DHT22;12359;49.716;9.212;2023-01-29T00:57:29;1.30;99.90
24224;DHT22;12359;49.716;9.212;2023-01-29T00:59:55;1.30;99.90
24224;DHT22;12359;49.716;9.212;2023-01-29T01:02:21;1.30;99.90
24224;DHT22;12359;49.716;9.212;2023-01-29T01:05:06;1.30;99.90
24224;DHT22;12359;49.716;9.212;2023-01-29T01:07:34;1.30;99.90
24224;DHT22;12359;49.716;9.212;2023-01-29T01:10:00;1.20;99.90
24224;DHT22;12359;49.716;9.212;2023-01-29T01:12:44;1.20;1.00
24224;DHT22;12359;49.716;9.212;2023-01-29T01:15:10;1.30;1.00
24224;DHT22;12359;49.716;9.212;2023-01-29T01:17:36;1.30;1.00
24224;DHT22;12359;49.716;9.212;2023-01-29T01:20:02;1.20;1.00
24224;DHT22;12359;49.716;9.212;2023-01-29T01:22:28;1.30;99.90
24224;DHT22;12359;49.716;9.212;2023-01-29T01:24:54;1.30;1.00
24224;DHT22;12359;49.716;9.212;2023-01-29T01:27:20;1.30;99.90
24224;DHT22;12359;49.716;9.212;2023-01-29T01:29:45;1.30;99.90
24224;DHT22;12359;49.716;9.212;2023-01-29T01:32:11;1.20;1.00
24224;DHT22;12359;49.716;9.212;2023-01-29T01:34:37;1.20;99.90
24224;DHT22;12359;49.716;9.212;2023-01-29T01:37:03;1.20;99.90
24224;DHT22;12359;49.716;9.212;2023-01-29T01:39:29;1.20;99.90
24224;DHT22;12359;49.716;9.212;2023-01-29T01:41:54;1.30;1.00
24224;DHT22;12359;49.716;9.212;2023-01-29T01:47:37;1.20;99.90
24224;DHT22;12359;49.716;9.212;2023-01-29T01:50:40;1.20;99.90
24224;DHT22;12359;49.716;9.212;2023-01-29T01:53:07;1.10;99.90
24224;DHT22;12359;49.716;9.212;2023-01-29T01:55:37;1.10;99.90
24224;DHT22;12359;49.716;9.212;2023-01-29T01:58:13;1.10;26.30
24224;DHT22;12359;49.716;9.212;2023-01-29T02:00:41;1.20;99.90
24224;DHT22;12359;49.716;9.212;2023-01-29T02:03:08;1.20;99.90
24224;DHT22;12359;49.716;9.212;2023-01-29T02:05:54;1.20;99.90
24224;DHT22;12359;49.716;9.212;2023-01-29T02:11:38;1.30;1.00
24224;DHT22;12359;49.716;9.212;2023-01-29T02:14:04;1.20;99.90
24224;DHT22;12359;49.716;9.212;2023-01-29T02:16:29;1.20;1.00
24224;DHT22;12359;49.716;9.212;2023-01-29T02:18:58;1.20;99.90
24224;DHT22;12359;49.716;9.212;2023-01-29T02:30:05;1.20;99.90
24224;DHT22;12359;49.716;9.212;2023-01-29T02:32:46;1.10;1.00
24224;DHT22;12359;49.716;9.212;2023-01-29T02:35:30;1.20;1.00
24224;DHT22;12359;49.716;9.212;2023-01-29T02:44:05;1.20;99.90
24224;DHT22;12359;49.716;9.212;2023-01-29T02:46:40;1.10;99.90
24224;DHT22;12359;49.716;9.212;2023-01-29T02:51:43;1.10;1.00
24224;DHT22;12359;49.716;9.212;2023-01-29T02:54:16;1.10;1.00
24224;DHT22;12359;49.716;9.212;2023-01-29T02:56:52;1.00;1.00
24224;DHT22;12359;49.716;9.212;2023-01-29T02:59:24;1.00;99.90
24224;DHT22;12359;49.716;9.212;2023-01-29T03:01:55;1.00;1.00
24224;DHT22;12359;49.716;9.212;2023-01-29T03:04:26;0.90;99.90
24224;DHT22;12359;49.716;9.212;2023-01-29T03:07:08;1.00;99.90
24224;DHT22;12359;49.716;9.212;2023-01-29T03:09:45;0.90;99.90
24224;DHT22;12359;49.716;9.212;2023-01-29T03:12:27;0.90;1.00
24224;DHT22;12359;49.716;9.212;2023-01-29T03:15:04;0.80;99.90
24224;DHT22;12359;49.716;9.212;2023-01-29T03:20:14;0.90;1.00
24224;DHT22;12359;49.716;9.212;2023-01-29T03:22:44;0.90;1.00
24224;DHT22;12359;49.716;9.212;2023-01-29T03:25:13;0.90;1.00
24224;DHT22;12359;49.716;9.212;2023-01-29T03:27:59;0.80;99.90
24224;DHT22;12359;49.716;9.212;2023-01-29T03:33:38;0.70;99.90
24224;DHT22;12359;49.716;9.212;2023-01-29T03:36:09;0.70;99.90
24224;DHT22;12359;49.716;9.212;2023-01-29T03:38:37;0.70;99.90
24224;DHT22;12359;49.716;9.212;2023-01-29T03:41:17;0.70;99.90
24224;DHT22;12359;49.716;9.212;2023-01-29T03:46:58;0.60;99.90
24224;DHT22;12359;49.716;9.212;2023-01-29T03:52:22;0.60;1.00
24224;DHT22;12359;49.716;9.212;2023-01-29T03:55:07;0.70;99.90
24224;DHT22;12359;49.716;9.212;2023-01-29T03:57:39;0.60;99.90
24224;DHT22;12359;49.716;9.212;2023-01-29T04:02:43;0.60;4.00
24224;DHT22;12359;49.716;9.212;2023-01-29T04:05:35;0.60;55.40
24224;DHT22;12359;49.716;9.212;2023-01-29T04:08:08;0.60;66.50
24224;DHT22;12359;49.716;9.212;2023-01-29T04:10:37;0.60;99.90
24224;DHT22;12359;49.716;9.212;2023-01-29T04:13:08;0.50;99.90
24224;DHT22;12359;49.716;9.212;2023-01-29T04:15:40;0.50;99.90
24224;DHT22;12359;49.716;9.212;2023-01-29T04:18:08;0.50;36.20
24224;DHT22;12359;49.716;9.212;2023-01-29T04:20:34;0.50;99.90
24224;DHT22;12359;49.716;9.212;2023-01-29T04:23:00;0.50;99.90
24224;DHT22;12359;49.716;9.212;2023-01-29T04:25:30;0.50;99.90
24224;DHT22;12359;49.716;9.212;2023-01-29T04:30:46;0.60;99.90
24224;DHT22;12359;49.716;9.212;2023-01-29T04:36:53;0.60;1.00
24224;DHT22;12359;49.716;9.212;2023-01-29T04:39:31;0.50;1.00
24224;DHT22;12359;49.716;9.212;2023-01-29T04:44:38;0.60;1.00
24224;DHT22;12359;49.716;9.212;2023-01-29T04:47:44;0.60;1.00
24224;DHT22;12359;49.716;9.212;2023-01-29T04:50:40;0.60;1.00
24224;DHT22;12359;49.716;9.212;2023-01-29T04:59:16;0.60;99.90
24224;DHT22;12359;49.716;9.212;2023-01-29T05:01:44;0.60;99.90
24224;DHT22;12359;49.716;9.212;2023-01-29T05:04:13;0.50;3.60
24224;DHT22;12359;49.716;9.212;2023-01-29T05:06:41;0.50;1.00
24224;DHT22;12359;49.716;9.212;2023-01-29T05:09:08;0.50;99.90
24224;DHT22;12359;49.716;9.212;2023-01-29T05:11:34;0.50;1.00
24224;DHT22;12359;49.716;9.212;2023-01-29T05:14:03;0.50;7.40
24224;DHT22;12359;49.716;9.212;2023-01-29T05:16:34;0.40;16.30
24224;DHT22;12359;49.716;9.212;2023-01-29T05:19:12;0.40;31.80
24224;DHT22;12359;49.716;9.212;2023-01-29T05:21:39;0.40;99.90
24224;DHT22;12359;49.716;9.212;2023-01-29T05:24:14;0.40;99.90
24224;DHT22;12359;49.716;9.212;2023-01-29T05:26:42;0.40;99.90
24224;DHT22;12359;49.716;9.212;2023-01-29T05:29:26;0.30;1.00
24224;DHT22;12359;49.716;9.212;2023-01-29T05:31:52;0.30;99.90
24224;DHT22;12359;49.716;9.212;2023-01-29T05:34:18;0.30;99.90
24224;DHT22;12359;49.716;9.212;2023-01-29T05:36:44;0.40;99.90
24224;DHT22;12359;49.716;9.212;2023-01-29T05:39:09;0.40;99.90
24224;DHT22;12359;49.716;9.212;2023-01-29T05:41:35;0.40;1.00
24224;DHT22;12359;49.716;9.212;2023-01-29T05:44:01;0.40;1.00
24224;DHT22;12359;49.716;9.212;2023-01-29T05:46:26;0.40;99.90
24224;DHT22;12359;49.716;9.212;2023-01-29T05:48:52;0.40;99.90
24224;DHT22;12359;49.716;9.212;2023-01-29T05:51:18;0.50;99.90
24224;DHT22;12359;49.716;9.212;2023-01-29T05:53:43;0.50;99.90
24224;DHT22;12359;49.716;9.212;2023-01-29T05:56:09;0.50;99.90
24224;DHT22;12359;49.716;9.212;2023-01-29T05:58:35;0.50;99.90
24224;DHT22;12359;49.716;9.212;2023-01-29T06:01:15;0.50;99.90
24224;DHT22;12359;49.716;9.212;2023-01-29T06:03:41;0.50;99.90
24224;DHT22;12359;49.716;9.212;2023-01-29T06:06:07;0.50;99.90
24224;DHT22;12359;49.716;9.212;2023-01-29T06:08:33;0.50;99.90
24224;DHT22;12359;49.716;9.212;2023-01-29T06:10:59;0.50;99.90
24224;DHT22;12359;49.716;9.212;2023-01-29T06:13:25;0.50;99.90
24224;DHT22;12359;49.716;9.212;2023-01-29T06:15:50;0.50;99.90
24224;DHT22;12359;49.716;9.212;2023-01-29T06:18:16;0.50;1.00
24224;DHT22;12359;49.716;9.212;2023-01-29T06:20:42;0.50;99.90
24224;DHT22;12359;49.716;9.212;2023-01-29T06:23:07;0.50;99.90
24224;DHT22;12359;49.716;9.212;2023-01-29T06:25:33;0.50;99.90
24224;DHT22;12359;49.716;9.212;2023-01-29T06:27:59;0.50;99.90
24224;DHT22;12359;49.716;9.212;2023-01-29T06:30:24;0.60;99.90
24224;DHT22;12359;49.716;9.212;2023-01-29T06:32:50;0.60;99.90
24224;DHT22;12359;49.716;9.212;2023-01-29T06:35:19;0.60;1.00
24224;DHT22;12359;49.716;9.212;2023-01-29T06:37:45;0.60;1.00
24224;DHT22;12359;49.716;9.212;2023-01-29T06:40:11;0.60;99.90
24224;DHT22;12359;49.716;9.212;2023-01-29T06:42:36;0.60;99.90
24224;DHT22;12359;49.716;9.212;2023-01-29T06:45:02;0.60;99.90
24224;DHT22;12359;49.716;9.212;2023-01-29T06:47:28;0.60;99.90
24224;DHT22;12359;49.716;9.212;2023-01-29T06:49:54;0.60;99.90
24224;DHT22;12359;49.716;9.212;2023-01-29T06:52:19;0.60;1.00
24224;DHT22;12359;49.716;9.212;2023-01-29T06:54:45;0.60;99.90
24224;DHT22;12359;49.716;9.212;2023-01-29T06:57:11;0.60;99.90
24224;DHT22;12359;49.716;9.212;2023-01-29T06:59:36;0.60;99.90
24224;DHT22;12359;49.716;9.212;2023-01-29T07:02:02;0.60;99.90
24224;DHT22;12359;49.716;9.212;2023-01-29T07:04:28;0.60;99.90
24224;DHT22;12359;49.716;9.212;2023-01-29T07:06:54;0.70;99.90
24224;DHT22;12359;49.716;9.212;2023-01-29T07:09:19;0.70;99.90
24224;DHT22;12359;49.716;9.212;2023-01-29T07:11:45;0.70;99.90
24224;DHT22;12359;49.716;9.212;2023-01-29T07:14:12;0.70;99.90
24224;DHT22;12359;49.716;9.212;2023-01-29T07:16:38;0.70;99.90
24224;DHT22;12359;49.716;9.212;2023-01-29T07:19:03;0.80;99.90
24224;DHT22;12359;49.716;9.212;2023-01-29T07:21:29;0.80;27.70
24224;DHT22;12359;49.716;9.212;2023-01-29T07:23:54;0.80;1.00
24224;DHT22;12359;49.716;9.212;2023-01-29T07:26:20;0.70;24.00
24224;DHT22;12359;49.716;9.212;2023-01-29T07:28:46;0.80;1.00
24224;DHT22;12359;49.716;9.212;2023-01-29T07:31:12;0.80;1.00
24224;DHT22;12359;49.716;9.212;2023-01-29T07:33:39;0.80;1.00
24224;DHT22;12359;49.716;9.212;2023-01-29T07:36:08;0.80;1.00
24224;DHT22;12359;49.716;9.212;2023-01-29T07:38:33;0.80;99.90
24224;DHT22;12359;49.716;9.212;2023-01-29T07:40:59;0.90;99.90
24224;DHT22;12359;49.716;9.212;2023-01-29T07:43:24;0.90;99.90
24224;DHT22;12359;49.716;9.212;2023-01-29T07:45:50;0.90;99.90
24224;DHT22;12359;49.716;9.212;2023-01-29T07:48:16;0.90;99.90
24224;DHT22;12359;49.716;9.212;2023-01-29T07:50:42;0.90;65.00
24224;DHT22;12359;49.716;9.212;2023-01-29T07:53:14;1.00;99.90
24224;DHT22;12359;49.716;9.212;2023-01-29T07:55:43;0.90;99.90
24224;DHT22;12359;49.716;9.212;2023-01-29T07:58:08;0.90;99.90
24224;DHT22;12359;49.716;9.212;2023-01-29T08:00:34;1.00;99.90
24224;DHT22;12359;49.716;9.212;2023-01-29T08:03:02;0.90;99.90
24224;DHT22;12359;49.716;9.212;2023-01-29T08:05:28;1.00;79.30
24224;DHT22;12359;49.716;9.212;2023-01-29T08:07:54;1.10;28.30
24224;DHT22;12359;49.716;9.212;2023-01-29T08:10:19;1.10;1.00
24224;DHT22;12359;49.716;9.212;2023-01-29T08:12:45;1.30;1.00
24224;DHT22;12359;49.716;9.212;2023-01-29T08:15:11;1.40;60.70
24224;DHT22;12359;49.716;9.212;2023-01-29T08:17:36;1.50;1.00
24224;DHT22;12359;49.716;9.212;2023-01-29T08:20:05;1.70;56.40
24224;DHT22;12359;49.716;9.212;2023-01-29T08:22:34;1.80;99.90
24224;DHT22;12359;49.716;9.212;2023-01-29T08:25:00;1.80;99.90
24224;DHT22;12359;49.716;9.212;2023-01-29T08:27:25;2.00;99.90
24224;DHT22;12359;49.716;9.212;2023-01-29T08:29:51;2.00;99.90
24224;DHT22;12359;49.716;9.212;2023-01-29T08:32:17;2.20;50.30
24224;DHT22;12359;49.716;9.212;2023-01-29T08:34:42;2.60;1.00
24224;DHT22;12359;49.716;9.212;2023-01-29T08:37:08;3.10;99.90
24224;DHT22;12359;49.716;9.212;2023-01-29T08:39:33;3.30;1.00
24224;DHT22;12359;49.716;9.212;2023-01-29T08:41:59;3.50;1.00
24224;DHT22;12359;49.716;9.212;2023-01-29T08:44:25;4.00;99.90
24224;DHT22;12359;49.716;9.212;2023-01-29T08:46:50;4.50;99.90
24224;DHT22;12359;49.716;9.212;2023-01-29T08:49:16;4.90;27.50
24224;DHT22;12359;49.716;9.212;2023-01-29T08:51:42;5.00;1.00
24224;DHT22;12359;49.716;9.212;2023-01-29T08:54:07;5.40;1.00
24224;DHT22;12359;49.716;9.212;2023-01-29T08:56:33;5.60;99.90
24224;DHT22;12359;49.716;9.212;2023-01-29T08:58:58;5.90;99.90
24224;DHT22;12359;49.716;9.212;2023-01-29T09:01:24;6.10;99.90
24224;DHT22;12359;49.716;9.212;2023-01-29T09:03:50;6.00;99.90
24224;DHT22;12359;49.716;9.212;2023-01-29T09:06:16;6.10;99.90
24224;DHT22;12359;49.716;9.212;2023-01-29T09:08:42;6.80;99.90
24224;DHT22;12359;49.716;9.212;2023-01-29T09:11:08;7.60;98.90
24224;DHT22;12359;49.716;9.212;2023-01-29T09:13:35;7.60;45.30
24224;DHT22;12359;49.716;9.212;2023-01-29T09:16:02;8.10;27.20
24224;DHT22;12359;49.716;9.212;2023-01-29T09:18:29;8.10;12.00
24224;DHT22;12359;49.716;9.212;2023-01-29T09:20:55;7.90;7.60
24224;DHT22;12359;49.716;9.212;2023-01-29T09:23:21;7.70;4.20
24224;DHT22;12359;49.716;9.212;2023-01-29T09:25:48;7.70;1.70
24224;DHT22;12359;49.716;9.212;2023-01-29T09:28:14;7.80;5.20
24224;DHT22;12359;49.716;9.212;2023-01-29T09:30:42;7.40;1.00
24224;DHT22;12359;49.716;9.212;2023-01-29T09:33:09;7.50;1.00
24224;DHT22;12359;49.716;9.212;2023-01-29T09:35:34;7.20;1.00
24224;DHT22;12359;49.716;9.212;2023-01-29T09:38:00;6.90;1.00
24224;DHT22;12359;49.716;9.212;2023-01-29T09:43:06;5.90;1.00
24224;DHT22;12359;49.716;9.212;2023-01-29T09:45:35;5.60;8.30
24224;DHT22;12359;49.716;9.212;2023-01-29T09:48:03;5.30;21.10
24224;DHT22;12359;49.716;9.212;2023-01-29T09:50:37;5.00;32.30
24224;DHT22;12359;49.716;9.212;2023-01-29T09:55:58;4.30;87.30
24224;DHT22;12359;49.716;9.212;2023-01-29T09:58:32;3.90;99.90
24224;DHT22;12359;49.716;9.212;2023-01-29T10:06:46;2.70;1.00
24224;DHT22;12359;49.716;9.212;2023-01-29T10:11:56;2.40;99.90
24224;DHT22;12359;49.716;9.212;2023-01-29T10:17:09;2.20;99.90
24224;DHT22;12359;49.716;9.212;2023-01-29T10:22:31;2.20;1.00
24224;DHT22;12359;49.716;9.212;2023-01-29T10:27:33;2.10;1.00
24224;DHT22;12359;49.716;9.212;2023-01-29T10:30:06;2.00;1.00
24224;DHT22;12359;49.716;9.212;2023-01-29T10:32:36;2.10;1.00
24224;DHT22;12359;49.716;9.212;2023-01-29T10:35:03;2.10;1.00
24224;DHT22;12359;49.716;9.212;2023-01-29T10:37:40;2.10;1.00
24224;DHT22;12359;49.716;9.212;2023-01-29T10:51:55;2.40;99.90
24224;DHT22;12359;49.716;9.212;2023-01-29T10:59:53;2.20;99.90
24224;DHT22;12359;49.716;9.212;2023-01-29T11:02:22;2.20;99.90
24224;DHT22;12359;49.716;9.212;2023-01-29T11:04:47;2.20;99.90
24224;DHT22;12359;49.716;9.212;2023-01-29T11:07:15;2.40;99.90
24224;DHT22;12359;49.716;9.212;2023-01-29T11:10:06;2.50;99.90
24224;DHT22;12359;49.716;9.212;2023-01-29T11:12:33;2.60;99.90
24224;DHT22;12359;49.716;9.212;2023-01-29T11:17:30;2.70;99.90
24224;DHT22;12359;49.716;9.212;2023-01-29T11:19:55;2.80;99.90
24224;DHT22;12359;49.716;9.212;2023-01-29T11:22:24;2.80;99.90
24224;DHT22;12359;49.716;9.212;2023-01-29T11:25:17;2.90;42.10
24224;DHT22;12359;49.716;9.212;2023-01-29T11:27:49;3.00;74.20
24224;DHT22;12359;49.716;9.212;2023-01-29T11:30:26;3.00;1.00
24224;DHT22;12359;49.716;9.212;2023-01-29T11:35:31;3.30;26.40
24224;DHT22;12359;49.716;9.212;2023-01-29T11:40:37;3.60;1.00
24224;DHT22;12359;49.716;9.212;2023-01-29T11:45:53;3.60;1.00
24224;DHT22;12359;49.716;9.212;2023-01-29T11:48:22;3.70;1.00
24224;DHT22;12359;49.716;9.212;2023-01-29T11:50:53;3.80;1.00
24224;DHT22;12359;49.716;9.212;2023-01-29T11:53:39;3.50;99.90
24224;DHT22;12359;49.716;9.212;2023-01-29T11:56:19;3.20;99.90
24224;DHT22;12359;49.716;9.212;2023-01-29T11:58:47;3.20;1.00
24224;DHT22;12359;49.716;9.212;2023-01-29T12:01:17;3.30;1.00
24224;DHT22;12359;49.716;9.212;2023-01-29T12:03:47;3.40;1.00
24224;DHT22;12359;49.716;9.212;2023-01-29T12:06:21;3.60;1.00
24224;DHT22;12359;49.716;9.212;2023-01-29T12:08:59;3.60;1.00
24224;DHT22;12359;49.716;9.212;2023-01-29T12:11:32;3.60;99.90
24224;DHT22;12359;49.716;9.212;2023-01-29T12:14:04;3.50;1.00
24224;DHT22;12359;49.716;9.212;2023-01-29T12:17:06;3.60;99.90
24224;DHT22;12359;49.716;9.212;2023-01-29T12:19:41;3.60;99.90
24224;DHT22;12359;49.716;9.212;2023-01-29T12:22:29;3.60;99.90
24224;DHT22;12359;49.716;9.212;2023-01-29T12:30:43;3.60;1.00
24224;DHT22;12359;49.716;9.212;2023-01-29T12:33:28;3.70;1.00
24224;DHT22;12359;49.716;9.212;2023-01-29T12:36:13;4.00;1.00
24224;DHT22;12359;49.716;9.212;2023-01-29T12:38:43;4.20;1.00
24224;DHT22;12359;49.716;9.212;2023-01-29T12:43:59;4.30;1.00
24224;DHT22;12359;49.716;9.212;2023-01-29T12:46:30;4.30;99.90
24224;DHT22;12359;49.716;9.212;2023-01-29T12:49:01;4.20;99.90
24224;DHT22;12359;49.716;9.212;2023-01-29T12:51:36;4.20;99.90
24224;DHT22;12359;49.716;9.212;2023-01-29T12:54:08;4.10;99.90
24224;DHT22;12359;49.716;9.212;2023-01-29T12:56:42;4.00;99.90
24224;DHT22;12359;49.716;9.212;2023-01-29T12:59:35;4.00;99.90
24224;DHT22;12359;49.716;9.212;2023-01-29T13:02:24;4.10;99.90
24224;DHT22;12359;49.716;9.212;2023-01-29T13:08:45;4.20;99.90
24224;DHT22;12359;49.716;9.212;2023-01-29T13:11:09;4.20;99.90
24224;DHT22;12359;49.716;9.212;2023-01-29T13:13:43;4.20;99.90
24224;DHT22;12359;49.716;9.212;2023-01-29T13:16:11;4.30;99.90
24224;DHT22;12359;49.716;9.212;2023-01-29T13:21:20;4.20;99.90
24224;DHT22;12359;49.716;9.212;2023-01-29T13:23:49;4.20;99.90
24224;DHT22;12359;49.716;9.212;2023-01-29T13:26:20;4.30;1.00
24224;DHT22;12359;49.716;9.212;2023-01-29T13:28:46;4.30;99.90
24224;DHT22;12359;49.716;9.212;2023-01-29T13:36:26;4.30;99.90
24224;DHT22;12359;49.716;9.212;2023-01-29T13:39:29;4.30;99.90
24224;DHT22;12359;49.716;9.212;2023-01-29T13:41:57;4.20;99.90
24224;DHT22;12359;49.716;9.212;2023-01-29T13:44:33;4.20;99.90
24224;DHT22;12359;49.716;9.212;2023-01-29T13:47:01;4.10;1.00
24224;DHT22;12359;49.716;9.212;2023-01-29T13:49:43;4.10;99.90
24224;DHT22;12359;49.716;9.212;2023-01-29T13:55:02;3.90;1.00
24224;DHT22;12359;49.716;9.212;2023-01-29T14:02:47;3.80;1.00
24224;DHT22;12359;49.716;9.212;2023-01-29T14:10:29;3.80;1.00
24224;DHT22;12359;49.716;9.212;2023-01-29T14:18:33;3.90;1.00
24224;DHT22;12359;49.716;9.212;2023-01-29T14:25:57;4.00;1.00
24224;DHT22;12359;49.716;9.212;2023-01-29T14:28:27;4.10;1.00
24224;DHT22;12359;49.716;9.212;2023-01-29T14:30:54;4.20;1.00
24224;DHT22;12359;49.716;9.212;2023-01-29T14:33:27;4.20;1.00
24224;DHT22;12359;49.716;9.212;2023-01-29T14:35:57;4.20;1.00
24224;DHT22;12359;49.716;9.212;2023-01-29T14:38:26;4.10;1.00
24224;DHT22;12359;49.716;9.212;2023-01-29T14:41:24;4.10;1.00
24224;DHT22;12359;49.716;9.212;2023-01-29T14:43:47;4.00;1.00
24224;DHT22;12359;49.716;9.212;2023-01-29T14:49:00;3.80;1.00
24224;DHT22;12359;49.716;9.212;2023-01-29T14:51:32;3.70;1.00
24224;DHT22;12359;49.716;9.212;2023-01-29T14:54:21;3.60;1.40
24224;DHT22;12359;49.716;9.212;2023-01-29T14:57:02;3.40;1.00
24224;DHT22;12359;49.716;9.212;2023-01-29T14:59:42;3.40;32.00
24224;DHT22;12359;49.716;9.212;2023-01-29T15:02:23;3.30;96.10
24224;DHT22;12359;49.716;9.212;2023-01-29T15:04:56;3.20;99.90
24224;DHT22;12359;49.716;9.212;2023-01-29T15:10:18;3.10;99.90
24224;DHT22;12359;49.716;9.212;2023-01-29T15:12:59;3.10;99.90
24224;DHT22;12359;49.716;9.212;2023-01-29T15:15:55;2.90;99.90
24224;DHT22;12359;49.716;9.212;2023-01-29T15:20:47;2.90;17.10
24224;DHT22;12359;49.716;9.212;2023-01-29T15:23:26;2.80;99.90
24224;DHT22;12359;49.716;9.212;2023-01-29T15:25:55;2.80;99.90
24224;DHT22;12359;49.716;9.212;2023-01-29T15:28:21;2.70;99.90
24224;DHT22;12359;49.716;9.212;2023-01-29T15:30:54;2.60;99.90
24224;DHT22;12359;49.716;9.212;2023-01-29T15:33:21;2.60;1.00
24224;DHT22;12359;49.716;9.212;2023-01-29T15:35:47;2.50;7.60
24224;DHT22;12359;49.716;9.212;2023-01-29T15:38:15;2.50;99.90
24224;DHT22;12359;49.716;9.212;2023-01-29T15:40:41;2.50;99.90
24224;DHT22;12359;49.716;9.212;2023-01-29T15:43:36;2.50;99.90
24224;DHT22;12359;49.716;9.212;2023-01-29T15:46:06;2.40;99.90
24224;DHT22;12359;49.716;9.212;2023-01-29T15:48:37;2.30;31.90
24224;DHT22;12359;49.716;9.212;2023-01-29T15:51:05;2.30;99.90
24224;DHT22;12359;49.716;9.212;2023-01-29T15:53:40;2.20;99.90
24224;DHT22;12359;49.716;9.212;2023-01-29T15:56:07;2.10;46.70
24224;DHT22;12359;49.716;9.212;2023-01-29T15:58:34;2.10;99.90
24224;DHT22;12359;49.716;9.212;2023-01-29T16:01:00;2.00;1.00
24224;DHT22;12359;49.716;9.212;2023-01-29T16:03:30;1.90;99.90
24224;DHT22;12359;49.716;9.212;2023-01-29T16:05:57;1.90;99.90
24224;DHT22;12359;49.716;9.212;2023-01-29T16:08:24;1.90;1.00
24224;DHT22;12359;49.716;9.212;2023-01-29T16:10:55;1.90;6.30
24224;DHT22;12359;49.716;9.212;2023-01-29T16:13:28;1.80;99.90
24224;DHT22;12359;49.716;9.212;2023-01-29T16:18:35;1.80;1.00
24224;DHT22;12359;49.716;9.212;2023-01-29T16:21:09;1.70;99.90
24224;DHT22;12359;49.716;9.212;2023-01-29T16:23:47;1.60;99.90
24224;DHT22;12359;49.716;9.212;2023-01-29T16:26:30;1.60;1.00
24224;DHT22;12359;49.716;9.212;2023-01-29T16:29:07;1.50;1.00
24224;DHT22;12359;49.716;9.212;2023-01-29T16:31:35;1.50;99.90
24224;DHT22;12359;49.716;9.212;2023-01-29T16:34:09;1.40;99.90
24224;DHT22;12359;49.716;9.212;2023-01-29T16:36:44;1.40;99.90
24224;DHT22;12359;49.716;9.212;2023-01-29T16:39:20;1.30;99.90
24224;DHT22;12359;49.716;9.212;2023-01-29T16:44:53;1.20;1.00
24224;DHT22;12359;49.716;9.212;2023-01-29T16:50:31;0.80;99.90
24224;DHT22;12359;49.716;9.212;2023-01-29T16:53:18;0.80;99.90
24224;DHT22;12359;49.716;9.212;2023-01-29T16:55:46;0.70;99.90
24224;DHT22;12359;49.716;9.212;2023-01-29T16:58:26;0.70;99.90
24224;DHT22;12359;49.716;9.212;2023-01-29T17:01:01;0.60;99.90
24224;DHT22;12359;49.716;9.212;2023-01-29T17:03:30;0.60;99.90
24224;DHT22;12359;49.716;9.212;2023-01-29T17:05:58;0.50;99.90
24224;DHT22;12359;49.716;9.212;2023-01-29T17:08:32;0.50;99.90
24224;DHT22;12359;49.716;9.212;2023-01-29T17:10:59;0.40;1.00
24224;DHT22;12359;49.716;9.212;2023-01-29T17:13:37;0.40;1.00
24224;DHT22;12359;49.716;9.212;2023-01-29T17:18:39;0.30;1.00
24224;DHT22;12359;49.716;9.212;2023-01-29T17:21:04;0.30;3.10
24224;DHT22;12359;49.716;9.212;2023-01-29T17:23:30;0.30;4.10
24224;DHT22;12359;49.716;9.212;2023-01-29T17:25:56;0.30;9.50
24224;DHT22;12359;49.716;9.212;2023-01-29T17:28:22;0.30;1.00
24224;DHT22;12359;49.716;9.212;2023-01-29T17:30:47;0.30;17.80
24224;DHT22;12359;49.716;9.212;2023-01-29T17:33:16;0.30;31.40
24224;DHT22;12359;49.716;9.212;2023-01-29T17:35:44;0.30;20.40
24224;DHT22;12359;49.716;9.212;2023-01-29T17:38:15;0.30;15.40
24224;DHT22;12359;49.716;9.212;2023-01-29T17:40:41;0.30;3.10
24224;DHT22;12359;49.716;9.212;2023-01-29T17:43:10;0.30;1.00
24224;DHT22;12359;49.716;9.212;2023-01-29T17:45:39;0.20;1.00
24224;DHT22;12359;49.716;9.212;2023-01-29T17:50:39;0.10;22.30
24224;DHT22;12359;49.716;9.212;2023-01-29T17:53:05;0.10;43.70
24224;DHT22;12359;49.716;9.212;2023-01-29T17:55:31;0.00;53.20
24224;DHT22;12359;49.716;9.212;2023-01-29T17:57:56;0.00;37.00
24224;DHT22;12359;49.716;9.212;2023-01-29T18:00:23;0.00;83.20
24224;DHT22;12359;49.716;9.212;2023-01-29T18:02:49;-0.10;94.20
24224;DHT22;12359;49.716;9.212;2023-01-29T18:05:15;-0.10;63.00
24224;DHT22;12359;49.716;9.212;2023-01-29T18:07:43;-0.10;82.40
24224;DHT22;12359;49.716;9.212;2023-01-29T18:10:15;-0.10;97.30
24224;DHT22;12359;49.716;9.212;2023-01-29T18:12:42;-0.20;99.90
24224;DHT22;12359;49.716;9.212;2023-01-29T18:15:08;-0.30;99.90
24224;DHT22;12359;49.716;9.212;2023-01-29T18:17:34;-0.30;99.90
24224;DHT22;12359;49.716;9.212;2023-01-29T18:19:59;-0.30;99.90
24224;DHT22;12359;49.716;9.212;2023-01-29T18:22:25;-0.30;99.90
24224;DHT22;12359;49.716;9.212;2023-01-29T18:24:51;-0.40;99.90
24224;DHT22;12359;49.716;9.212;2023-01-29T18:27:16;-0.40;99.90
24224;DHT22;12359;49.716;9.212;2023-01-29T18:29:42;-0.40;99.90
24224;DHT22;12359;49.716;9.212;2023-01-29T18:32:08;-0.40;99.90
24224;DHT22;12359;49.716;9.212;2023-01-29T18:34:34;-0.40;99.90
24224;DHT22;12359;49.716;9.212;2023-01-29T18:37:00;-0.40;99.90
24224;DHT22;12359;49.716;9.212;2023-01-29T18:39:25;-0.40;99.90
24224;DHT22;12359;49.716;9.212;2023-01-29T18:41:51;-0.40;99.90
24224;DHT22;12359;49.716;9.212;2023-01-29T18:44:17;-0.40;99.90
24224;DHT22;12359;49.716;9.212;2023-01-29T18:46:42;-0.50;99.90
24224;DHT22;12359;49.716;9.212;2023-01-29T18:49:08;-0.50;99.90
24224;DHT22;12359;49.716;9.212;2023-01-29T18:51:35;-0.50;99.90
24224;DHT22;12359;49.716;9.212;2023-01-29T18:54:00;-0.60;99.90
24224;DHT22;12359;49.716;9.212;2023-01-29T18:56:26;-0.60;99.90